sensor_id;sensor_type;location;lat;lon;timestamp;temperature;humidity
9544;DHT22;30418;51.45933468;7.33152330;2023-02-28T00:01:34;5.80;51.70
9544;DHT22;30418;51.45933468;7.33152330;2023-02-28T00:04:03;5.80;51.70
9544;DHT22;30418;51.45933468;7.33152330;2023-02-28T00:06:32;5.80;51.70
9544;DHT22;30418;51.45933468;7.33152330;2023-02-28T00:09:02;5.80;51.70
9544;DHT22;30418;51.45933468;7.33152330;2023-02-28T00:11:30;5.70;51.60
9544;DHT22;30418;51.45933468;7.33152330;2023-02-28T00:13:59;5.80;51.80
9544;DHT22;30418;51.45933468;7.33152330;2023-02-28T00:16:27;5.70;51.70
9544;DHT22;30418;51.45933468;7.33152330;2023-02-28T00:18:56;5.80;51.80
9544;DHT22;30418;51.45933468;7.33152330;2023-02-28T00:21:24;5.70;51.70
9544;DHT22;30418;51.45933468;7.33152330;2023-02-28T00:23:53;5.70;51.80
9544;DHT22;30418;51.45933468;7.33152330;2023-02-28T00:26:23;5.70;51.80
9544;DHT22;30418;51.45933468;7.33152330;2023-02-28T00:28:52;5.70;51.80
9544;DHT22;30418;51.45933468;7.33152330;2023-02-28T00:31:22;5.70;51.80
9544;DHT22;30418;51.45933468;7.33152330;2023-02-28T00:33:50;5.70;51.90
9544;DHT22;30418;51.45933468;7.33152330;2023-02-28T00:36:20;5.70;51.80
9544;DHT22;30418;51.45933468;7.33152330;2023-02-28T00:38:49;5.70;51.80
9544;DHT22;30418;51.45933468;7.33152330;2023-02-28T00:41:17;5.70;51.80
9544;DHT22;30418;51.45933468;7.33152330;2023-02-28T00:43:48;5.70;51.90
9544;DHT22;30418;51.45933468;7.33152330;2023-02-28T00:46:16;5.60;51.80
9544;DHT22;30418;51.45933468;7.33152330;2023-02-28T00:48:45;5.60;51.80
9544;DHT22;30418;51.45933468;7.33152330;2023-02-28T00:51:14;5.60;51.80
9544;DHT22;30418;51.45933468;7.33152330;2023-02-28T00:53:42;5.60;51.80
9544;DHT22;30418;51.45933468;7.33152330;2023-02-28T00:56:11;5.60;51.80
9544;DHT22;30418;51.45933468;7.33152330;2023-02-28T00:58:40;5.50;52.40
9544;DHT22;30418;51.45933468;7.33152330;2023-02-28T01:01:10;5.50;51.80
9544;DHT22;30418;51.45933468;7.33152330;2023-02-28T01:03:39;5.50;51.80
9544;DHT22;30418;51.45933468;7.33152330;2023-02-28T01:06:07;5.50;51.80
9544;DHT22;30418;51.45933468;7.33152330;2023-02-28T01:08:38;5.50;51.80
9544;DHT22;30418;51.45933468;7.33152330;2023-02-28T01:11:08;5.50;51.80
9544;DHT22;30418;51.45933468;7.33152330;2023-02-28T01:13:39;5.40;51.70
9544;DHT22;30418;51.45933468;7.33152330;2023-02-28T01:16:10;5.40;51.70
9544;DHT22;30418;51.45933468;7.33152330;2023-02-28T01:18:38;5.40;51.80
9544;DHT22;30418;51.45933468;7.33152330;2023-02-28T01:21:09;5.40;51.80
9544;DHT22;30418;51.45933468;7.33152330;2023-02-28T01:23:39;5.30;51.80
9544;DHT22;30418;51.45933468;7.33152330;2023-02-28T01:26:12;5.30;51.80
9544;DHT22;30418;51.45933468;7.33152330;2023-02-28T01:28:41;5.20;51.80
9544;DHT22;30418;51.45933468;7.33152330;2023-02-28T01:31:12;5.20;51.90
9544;DHT22;30418;51.45933468;7.33152330;2023-02-28T01:33:41;5.20;51.90
9544;DHT22;30418;51.45933468;7.33152330;2023-02-28T01:36:11;5.20;51.90
9544;DHT22;30418;51.45933468;7.33152330;2023-02-28T01:38:40;5.20;51.90
9544;DHT22;30418;51.45933468;7.33152330;2023-02-28T01:41:15;5.20;52.60
9544;DHT22;30418;51.45933468;7.33152330;2023-02-28T01:44:00;5.20;52.00
9544;DHT22;30418;51.45933468;7.33152330;2023-02-28T01:46:34;5.10;52.00
9544;DHT22;30418;51.45933468;7.33152330;2023-02-28T01:49:09;5.10;52.00
9544;DHT22;30418;51.45933468;7.33152330;2023-02-28T01:51:44;5.00;52.00
9544;DHT22;30418;51.45933468;7.33152330;2023-02-28T01:54:21;5.10;52.10
9544;DHT22;30418;51.45933468;7.33152330;2023-02-28T01:56:54;5.00;52.10
9544;DHT22;30418;51.45933468;7.33152330;2023-02-28T01:59:28;5.00;52.10
9544;DHT22;30418;51.45933468;7.33152330;2023-02-28T02:02:02;5.00;52.10
9544;DHT22;30418;51.45933468;7.33152330;2023-02-28T02:04:35;5.00;52.10
9544;DHT22;30418;51.45933468;7.33152330;2023-02-28T02:07:06;5.00;52.20
9544;DHT22;30418;51.45933468;7.33152330;2023-02-28T02:09:34;4.90;52.00
9544;DHT22;30418;51.45933468;7.33152330;2023-02-28T02:12:10;4.90;52.10
9544;DHT22;30418;51.45933468;7.33152330;2023-02-28T02:14:58;4.90;52.10
9544;DHT22;30418;51.45933468;7.33152330;2023-02-28T02:17:36;4.80;52.00
9544;DHT22;30418;51.45933468;7.33152330;2023-02-28T02:20:35;4.80;52.20
9544;DHT22;30418;51.45933468;7.33152330;2023-02-28T02:23:32;4.80;52.20
9544;DHT22;30418;51.45933468;7.33152330;2023-02-28T02:26:20;4.80;52.20
9544;DHT22;30418;51.45933468;7.33152330;2023-02-28T02:35:24;4.70;52.30
9544;DHT22;30418;51.45933468;7.33152330;2023-02-28T02:38:05;4.70;52.30
9544;DHT22;30418;51.45933468;7.33152330;2023-02-28T02:40:42;4.70;52.30
9544;DHT22;30418;51.45933468;7.33152330;2023-02-28T02:43:16;4.70;52.30
9544;DHT22;30418;51.45933468;7.33152330;2023-02-28T02:45:50;4.70;52.40
9544;DHT22;30418;51.45933468;7.33152330;2023-02-28T02:48:25;4.70;52.40
9544;DHT22;30418;51.45933468;7.33152330;2023-02-28T02:51:00;4.70;52.40
9544;DHT22;30418;51.45933468;7.33152330;2023-02-28T02:53:33;4.70;52.40
9544;DHT22;30418;51.45933468;7.33152330;2023-02-28T02:56:07;4.70;52.40
9544;DHT22;30418;51.45933468;7.33152330;2023-02-28T02:58:38;4.70;52.40
9544;DHT22;30418;51.45933468;7.33152330;2023-02-28T03:01:14;4.70;52.40
9544;DHT22;30418;51.45933468;7.33152330;2023-02-28T03:03:46;4.70;52.40
9544;DHT22;30418;51.45933468;7.33152330;2023-02-28T03:06:16;4.70;52.40
9544;DHT22;30418;51.45933468;7.33152330;2023-02-28T03:08:44;4.70;52.40
9544;DHT22;30418;51.45933468;7.33152330;2023-02-28T03:11:14;4.70;52.40
9544;DHT22;30418;51.45933468;7.33152330;2023-02-28T03:13:54;4.70;52.40
9544;DHT22;30418;51.45933468;7.33152330;2023-02-28T03:16:52;4.70;52.40
9544;DHT22;30418;51.45933468;7.33152330;2023-02-28T03:19:47;4.70;52.40
9544;DHT22;30418;51.45933468;7.33152330;2023-02-28T03:22:44;4.70;52.40
9544;DHT22;30418;51.45933468;7.33152330;2023-02-28T03:25:22;4.70;52.40
9544;DHT22;30418;51.45933468;7.33152330;2023-02-28T03:28:02;4.70;52.40
9544;DHT22;30418;51.45933468;7.33152330;2023-02-28T03:30:38;4.70;52.30
9544;DHT22;30418;51.45933468;7.33152330;2023-02-28T03:33:12;4.70;52.30
9544;DHT22;30418;51.45933468;7.33152330;2023-02-28T03:35:47;4.70;52.40
9544;DHT22;30418;51.45933468;7.33152330;2023-02-28T03:38:24;4.70;52.30
9544;DHT22;30418;51.45933468;7.33152330;2023-02-28T03:41:01;4.70;52.90
9544;DHT22;30418;51.45933468;7.33152330;2023-02-28T03:43:36;4.70;52.30
9544;DHT22;30418;51.45933468;7.33152330;2023-02-28T03:46:09;4.70;52.30
9544;DHT22;30418;51.45933468;7.33152330;2023-02-28T03:48:43;4.70;52.30
9544;DHT22;30418;51.45933468;7.33152330;2023-02-28T03:51:15;4.60;52.20
9544;DHT22;30418;51.45933468;7.33152330;2023-02-28T03:53:49;4.60;52.20
9544;DHT22;30418;51.45933468;7.33152330;2023-02-28T03:56:23;4.60;52.20
9544;DHT22;30418;51.45933468;7.33152330;2023-02-28T03:58:58;4.60;52.10
9544;DHT22;30418;51.45933468;7.33152330;2023-02-28T04:01:33;4.60;52.10
9544;DHT22;30418;51.45933468;7.33152330;2023-02-28T04:04:04;4.60;52.10
9544;DHT22;30418;51.45933468;7.33152330;2023-02-28T04:06:34;4.60;52.10
9544;DHT22;30418;51.45933468;7.33152330;2023-02-28T04:09:05;4.60;52.10
9544;DHT22;30418;51.45933468;7.33152330;2023-02-28T04:11:38;4.60;52.20
9544;DHT22;30418;51.45933468;7.33152330;2023-02-28T04:14:08;4.60;52.10
9544;DHT22;30418;51.45933468;7.33152330;2023-02-28T04:16:39;4.50;52.10
9544;DHT22;30418;51.45933468;7.33152330;2023-02-28T04:19:11;4.50;52.10
9544;DHT22;30418;51.45933468;7.33152330;2023-02-28T04:21:44;4.50;52.10
9544;DHT22;30418;51.45933468;7.33152330;2023-02-28T04:24:17;4.50;52.10
9544;DHT22;30418;51.45933468;7.33152330;2023-02-28T04:26:48;4.50;52.10
9544;DHT22;30418;51.45933468;7.33152330;2023-02-28T04:29:20;4.50;52.10
9544;DHT22;30418;51.45933468;7.33152330;2023-02-28T04:31:50;4.50;52.10
9544;DHT22;30418;51.45933468;7.33152330;2023-02-28T04:34:20;4.50;52.20
9544;DHT22;30418;51.45933468;7.33152330;2023-02-28T04:36:50;4.50;52.10
9544;DHT22;30418;51.45933468;7.33152330;2023-02-28T04:39:40;4.50;52.10
9544;DHT22;30418;51.45933468;7.33152330;2023-02-28T04:42:09;4.40;52.00
9544;DHT22;30418;51.45933468;7.33152330;2023-02-28T04:44:38;4.50;52.10
9544;DHT22;30418;51.45933468;7.33152330;2023-02-28T04:47:06;4.40;51.90
9544;DHT22;30418;51.45933468;7.33152330;2023-02-28T04:49:35;4.40;51.90
9544;DHT22;30418;51.45933468;7.33152330;2023-02-28T04:52:04;4.40;51.90
9544;DHT22;30418;51.45933468;7.33152330;2023-02-28T04:54:34;4.30;51.90
9544;DHT22;30418;51.45933468;7.33152330;2023-02-28T04:57:04;4.30;51.90
9544;DHT22;30418;51.45933468;7.33152330;2023-02-28T04:59:32;4.30;51.90
9544;DHT22;30418;51.45933468;7.33152330;2023-02-28T05:02:01;4.30;51.90
9544;DHT22;30418;51.45933468;7.33152330;2023-02-28T05:04:33;4.30;52.00
9544;DHT22;30418;51.45933468;7.33152330;2023-02-28T05:07:02;4.20;51.90
9544;DHT22;30418;51.45933468;7.33152330;2023-02-28T05:09:31;4.20;51.90
9544;DHT22;30418;51.45933468;7.33152330;2023-02-28T05:12:00;4.20;51.80
9544;DHT22;30418;51.45933468;7.33152330;2023-02-28T05:14:30;4.20;51.90
9544;DHT22;30418;51.45933468;7.33152330;2023-02-28T05:16:59;4.20;51.90
9544;DHT22;30418;51.45933468;7.33152330;2023-02-28T05:19:27;4.20;51.90
9544;DHT22;30418;51.45933468;7.33152330;2023-02-28T05:21:56;4.20;52.00
9544;DHT22;30418;51.45933468;7.33152330;2023-02-28T05:24:25;4.10;51.90
9544;DHT22;30418;51.45933468;7.33152330;2023-02-28T05:26:54;4.10;51.90
9544;DHT22;30418;51.45933468;7.33152330;2023-02-28T05:29:23;4.10;51.90
9544;DHT22;30418;51.45933468;7.33152330;2023-02-28T05:31:52;4.10;51.90
9544;DHT22;30418;51.45933468;7.33152330;2023-02-28T05:34:21;4.10;51.90
9544;DHT22;30418;51.45933468;7.33152330;2023-02-28T05:36:50;4.10;52.00
9544;DHT22;30418;51.45933468;7.33152330;2023-02-28T05:39:18;4.00;51.90
9544;DHT22;30418;51.45933468;7.33152330;2023-02-28T05:41:46;4.00;51.90
9544;DHT22;30418;51.45933468;7.33152330;2023-02-28T05:44:15;4.00;51.90
9544;DHT22;30418;51.45933468;7.33152330;2023-02-28T05:46:44;4.00;52.00
9544;DHT22;30418;51.45933468;7.33152330;2023-02-28T05:49:13;4.00;52.60
9544;DHT22;30418;51.45933468;7.33152330;2023-02-28T05:51:42;3.90;52.00
9544;DHT22;30418;51.45933468;7.33152330;2023-02-28T05:54:10;4.00;52.00
9544;DHT22;30418;51.45933468;7.33152330;2023-02-28T05:56:40;4.00;52.00
9544;DHT22;30418;51.45933468;7.33152330;2023-02-28T05:59:11;3.90;52.00
9544;DHT22;30418;51.45933468;7.33152330;2023-02-28T06:01:40;3.90;52.00
9544;DHT22;30418;51.45933468;7.33152330;2023-02-28T06:04:18;3.90;52.00
9544;DHT22;30418;51.45933468;7.33152330;2023-02-28T06:06:58;3.80;51.90
9544;DHT22;30418;51.45933468;7.33152330;2023-02-28T06:09:26;3.90;52.00
9544;DHT22;30418;51.45933468;7.33152330;2023-02-28T06:11:57;3.80;52.00
9544;DHT22;30418;51.45933468;7.33152330;2023-02-28T06:14:26;3.80;52.00
9544;DHT22;30418;51.45933468;7.33152330;2023-02-28T06:16:54;3.80;52.10
9544;DHT22;30418;51.45933468;7.33152330;2023-02-28T06:19:26;3.80;52.10
9544;DHT22;30418;51.45933468;7.33152330;2023-02-28T06:21:56;3.80;52.20
9544;DHT22;30418;51.45933468;7.33152330;2023-02-28T06:24:27;3.70;52.20
9544;DHT22;30418;51.45933468;7.33152330;2023-02-28T06:26:58;3.70;52.20
9544;DHT22;30418;51.45933468;7.33152330;2023-02-28T06:29:32;3.70;52.20
9544;DHT22;30418;51.45933468;7.33152330;2023-02-28T06:32:01;3.70;52.20
9544;DHT22;30418;51.45933468;7.33152330;2023-02-28T06:34:31;3.70;52.30
9544;DHT22;30418;51.45933468;7.33152330;2023-02-28T06:37:00;3.60;52.20
9544;DHT22;30418;51.45933468;7.33152330;2023-02-28T06:39:29;3.70;52.30
9544;DHT22;30418;51.45933468;7.33152330;2023-02-28T06:41:58;3.60;52.30
9544;DHT22;30418;51.45933468;7.33152330;2023-02-28T06:44:26;3.70;52.40
9544;DHT22;30418;51.45933468;7.33152330;2023-02-28T06:47:00;3.70;52.40
9544;DHT22;30418;51.45933468;7.33152330;2023-02-28T06:49:32;3.70;52.50
9544;DHT22;30418;51.45933468;7.33152330;2023-02-28T06:52:01;3.70;52.50
9544;DHT22;30418;51.45933468;7.33152330;2023-02-28T06:54:30;3.70;52.50
9544;DHT22;30418;51.45933468;7.33152330;2023-02-28T06:56:58;3.70;52.50
9544;DHT22;30418;51.45933468;7.33152330;2023-02-28T06:59:26;3.70;52.50
9544;DHT22;30418;51.45933468;7.33152330;2023-02-28T07:01:55;3.70;52.50
9544;DHT22;30418;51.45933468;7.33152330;2023-02-28T07:04:23;3.70;52.50
9544;DHT22;30418;51.45933468;7.33152330;2023-02-28T07:06:54;3.80;52.50
9544;DHT22;30418;51.45933468;7.33152330;2023-02-28T07:09:23;3.80;52.50
9544;DHT22;30418;51.45933468;7.33152330;2023-02-28T07:11:56;3.80;52.50
9544;DHT22;30418;51.45933468;7.33152330;2023-02-28T07:14:24;3.80;52.50
9544;DHT22;30418;51.45933468;7.33152330;2023-02-28T07:16:53;3.80;52.40
9544;DHT22;30418;51.45933468;7.33152330;2023-02-28T07:19:21;3.90;52.50
9544;DHT22;30418;51.45933468;7.33152330;2023-02-28T07:21:50;3.90;52.50
9544;DHT22;30418;51.45933468;7.33152330;2023-02-28T07:24:20;3.90;52.40
9544;DHT22;30418;51.45933468;7.33152330;2023-02-28T07:26:50;3.90;52.50
9544;DHT22;30418;51.45933468;7.33152330;2023-02-28T07:29:19;3.90;52.50
9544;DHT22;30418;51.45933468;7.33152330;2023-02-28T07:31:47;3.90;52.40
9544;DHT22;30418;51.45933468;7.33152330;2023-02-28T07:34:17;3.90;52.40
9544;DHT22;30418;51.45933468;7.33152330;2023-02-28T07:36:46;3.90;52.50
9544;DHT22;30418;51.45933468;7.33152330;2023-02-28T07:39:14;4.00;52.50
9544;DHT22;30418;51.45933468;7.33152330;2023-02-28T07:41:44;4.00;52.50
9544;DHT22;30418;51.45933468;7.33152330;2023-02-28T07:44:12;4.00;52.40
9544;DHT22;30418;51.45933468;7.33152330;2023-02-28T07:46:41;4.00;52.40
9544;DHT22;30418;51.45933468;7.33152330;2023-02-28T07:49:10;4.00;52.40
9544;DHT22;30418;51.45933468;7.33152330;2023-02-28T07:51:38;4.00;52.40
9544;DHT22;30418;51.45933468;7.33152330;2023-02-28T07:54:07;4.00;52.40
9544;DHT22;30418;51.45933468;7.33152330;2023-02-28T07:56:35;4.00;52.50
9544;DHT22;30418;51.45933468;7.33152330;2023-02-28T07:59:05;4.00;53.10
9544;DHT22;30418;51.45933468;7.33152330;2023-02-28T08:01:33;4.10;52.60
9544;DHT22;30418;51.45933468;7.33152330;2023-02-28T08:04:02;4.10;52.60
9544;DHT22;30418;51.45933468;7.33152330;2023-02-28T08:06:30;4.10;52.60
9544;DHT22;30418;51.45933468;7.33152330;2023-02-28T08:08:59;4.10;52.60
9544;DHT22;30418;51.45933468;7.33152330;2023-02-28T08:11:27;4.10;52.50
9544;DHT22;30418;51.45933468;7.33152330;2023-02-28T08:13:56;4.10;52.40
9544;DHT22;30418;51.45933468;7.33152330;2023-02-28T08:16:26;4.20;52.50
9544;DHT22;30418;51.45933468;7.33152330;2023-02-28T08:18:54;4.20;52.50
9544;DHT22;30418;51.45933468;7.33152330;2023-02-28T08:21:23;4.20;52.40
9544;DHT22;30418;51.45933468;7.33152330;2023-02-28T08:23:52;4.20;52.40
9544;DHT22;30418;51.45933468;7.33152330;2023-02-28T08:26:20;4.20;52.40
9544;DHT22;30418;51.45933468;7.33152330;2023-02-28T08:28:49;4.20;52.50
9544;DHT22;30418;51.45933468;7.33152330;2023-02-28T08:31:18;4.20;52.50
9544;DHT22;30418;51.45933468;7.33152330;2023-02-28T08:33:49;4.20;52.50
9544;DHT22;30418;51.45933468;7.33152330;2023-02-28T08:36:19;4.20;52.50
9544;DHT22;30418;51.45933468;7.33152330;2023-02-28T08:38:48;4.20;52.40
9544;DHT22;30418;51.45933468;7.33152330;2023-02-28T08:41:16;4.20;52.40
9544;DHT22;30418;51.45933468;7.33152330;2023-02-28T08:43:45;4.20;52.40
9544;DHT22;30418;51.45933468;7.33152330;2023-02-28T08:46:14;4.20;52.40
9544;DHT22;30418;51.45933468;7.33152330;2023-02-28T08:48:43;4.30;52.40
9544;DHT22;30418;51.45933468;7.33152330;2023-02-28T08:51:14;4.20;52.30
9544;DHT22;30418;51.45933468;7.33152330;2023-02-28T08:53:45;4.20;52.40
9544;DHT22;30418;51.45933468;7.33152330;2023-02-28T08:56:16;4.20;52.40
9544;DHT22;30418;51.45933468;7.33152330;2023-02-28T08:58:46;4.20;52.50
9544;DHT22;30418;51.45933468;7.33152330;2023-02-28T09:01:17;4.30;52.70
9544;DHT22;30418;51.45933468;7.33152330;2023-02-28T09:03:47;4.30;52.60
9544;DHT22;30418;51.45933468;7.33152330;2023-02-28T09:06:19;4.40;52.60
9544;DHT22;30418;51.45933468;7.33152330;2023-02-28T09:08:49;4.40;52.50
9544;DHT22;30418;51.45933468;7.33152330;2023-02-28T09:11:18;4.50;52.50
9544;DHT22;30418;51.45933468;7.33152330;2023-02-28T09:13:47;4.50;52.30
9544;DHT22;30418;51.45933468;7.33152330;2023-02-28T09:16:16;4.60;52.30
9544;DHT22;30418;51.45933468;7.33152330;2023-02-28T09:18:46;4.60;52.30
9544;DHT22;30418;51.45933468;7.33152330;2023-02-28T09:21:16;4.70;52.30
9544;DHT22;30418;51.45933468;7.33152330;2023-02-28T09:23:48;4.70;52.30
9544;DHT22;30418;51.45933468;7.33152330;2023-02-28T09:26:19;4.80;52.40
9544;DHT22;30418;51.45933468;7.33152330;2023-02-28T09:28:49;4.90;52.40
9544;DHT22;30418;51.45933468;7.33152330;2023-02-28T09:31:20;5.00;52.30
9544;DHT22;30418;51.45933468;7.33152330;2023-02-28T09:33:52;5.00;52.20
9544;DHT22;30418;51.45933468;7.33152330;2023-02-28T09:36:24;5.10;52.70
9544;DHT22;30418;51.45933468;7.33152330;2023-02-28T09:39:10;5.20;52.10
9544;DHT22;30418;51.45933468;7.33152330;2023-02-28T09:41:41;5.30;51.80
9544;DHT22;30418;51.45933468;7.33152330;2023-02-28T09:44:22;5.30;51.50
9544;DHT22;30418;51.45933468;7.33152330;2023-02-28T09:46:58;5.30;51.40
9544;DHT22;30418;51.45933468;7.33152330;2023-02-28T09:49:36;5.40;51.50
9544;DHT22;30418;51.45933468;7.33152330;2023-02-28T09:52:10;5.40;51.50
9544;DHT22;30418;51.45933468;7.33152330;2023-02-28T09:54:40;5.40;51.50
9544;DHT22;30418;51.45933468;7.33152330;2023-02-28T09:57:31;5.50;51.50
9544;DHT22;30418;51.45933468;7.33152330;2023-02-28T10:00:06;5.60;51.20
9544;DHT22;30418;51.45933468;7.33152330;2023-02-28T10:05:51;5.60;50.90
9544;DHT22;30418;51.45933468;7.33152330;2023-02-28T10:08:25;5.70;50.80
9544;DHT22;30418;51.45933468;7.33152330;2023-02-28T10:10:57;5.70;50.70
9544;DHT22;30418;51.45933468;7.33152330;2023-02-28T10:13:34;5.70;50.70
9544;DHT22;30418;51.45933468;7.33152330;2023-02-28T10:16:07;5.70;50.60
9544;DHT22;30418;51.45933468;7.33152330;2023-02-28T10:18:43;5.70;50.50
9544;DHT22;30418;51.45933468;7.33152330;2023-02-28T10:21:19;5.80;50.40
9544;DHT22;30418;51.45933468;7.33152330;2023-02-28T10:23:56;5.80;50.50
9544;DHT22;30418;51.45933468;7.33152330;2023-02-28T10:26:31;5.80;50.50
9544;DHT22;30418;51.45933468;7.33152330;2023-02-28T10:29:00;5.80;50.20
9544;DHT22;30418;51.45933468;7.33152330;2023-02-28T10:31:29;5.90;50.10
9544;DHT22;30418;51.45933468;7.33152330;2023-02-28T10:33:58;5.90;50.60
9544;DHT22;30418;51.45933468;7.33152330;2023-02-28T10:36:27;6.00;50.00
9544;DHT22;30418;51.45933468;7.33152330;2023-02-28T10:38:57;6.00;49.70
9544;DHT22;30418;51.45933468;7.33152330;2023-02-28T10:41:29;6.00;49.70
9544;DHT22;30418;51.45933468;7.33152330;2023-02-28T10:44:19;6.10;49.80
9544;DHT22;30418;51.45933468;7.33152330;2023-02-28T10:46:50;6.10;49.50
9544;DHT22;30418;51.45933468;7.33152330;2023-02-28T10:49:21;6.20;49.70
9544;DHT22;30418;51.45933468;7.33152330;2023-02-28T10:51:52;6.20;50.20
9544;DHT22;30418;51.45933468;7.33152330;2023-02-28T10:54:27;6.20;49.40
9544;DHT22;30418;51.45933468;7.33152330;2023-02-28T10:57:12;6.30;49.10
9544;DHT22;30418;51.45933468;7.33152330;2023-02-28T10:59:44;6.30;48.80
9544;DHT22;30418;51.45933468;7.33152330;2023-02-28T11:02:32;6.30;49.00
9544;DHT22;30418;51.45933468;7.33152330;2023-02-28T11:05:02;6.30;48.80
9544;DHT22;30418;51.45933468;7.33152330;2023-02-28T11:07:52;6.30;49.10
9544;DHT22;30418;51.45933468;7.33152330;2023-02-28T11:10:26;6.40;49.10
9544;DHT22;30418;51.45933468;7.33152330;2023-02-28T11:12:57;6.40;48.90
9544;DHT22;30418;51.45933468;7.33152330;2023-02-28T11:15:28;6.50;49.00
9544;DHT22;30418;51.45933468;7.33152330;2023-02-28T11:17:59;6.50;48.90
9544;DHT22;30418;51.45933468;7.33152330;2023-02-28T11:20:33;6.60;48.80
9544;DHT22;30418;51.45933468;7.33152330;2023-02-28T11:23:03;6.60;48.60
9544;DHT22;30418;51.45933468;7.33152330;2023-02-28T11:25:36;6.60;48.50
9544;DHT22;30418;51.45933468;7.33152330;2023-02-28T11:28:06;6.60;48.50
9544;DHT22;30418;51.45933468;7.33152330;2023-02-28T11:31:05;6.60;48.50
9544;DHT22;30418;51.45933468;7.33152330;2023-02-28T11:33:44;6.60;48.20
9544;DHT22;30418;51.45933468;7.33152330;2023-02-28T11:36:19;6.50;48.30
9544;DHT22;30418;51.45933468;7.33152330;2023-02-28T11:38:53;6.50;48.10
9544;DHT22;30418;51.45933468;7.33152330;2023-02-28T11:41:56;6.50;48.30
9544;DHT22;30418;51.45933468;7.33152330;2023-02-28T11:44:40;6.50;47.90
9544;DHT22;30418;51.45933468;7.33152330;2023-02-28T11:47:18;6.50;48.20
9544;DHT22;30418;51.45933468;7.33152330;2023-02-28T11:50:04;6.50;48.20
9544;DHT22;30418;51.45933468;7.33152330;2023-02-28T11:52:50;6.50;48.00
9544;DHT22;30418;51.45933468;7.33152330;2023-02-28T11:55:25;6.50;48.10
9544;DHT22;30418;51.45933468;7.33152330;2023-02-28T11:58:29;6.60;48.10
9544;DHT22;30418;51.45933468;7.33152330;2023-02-28T12:01:13;6.60;48.20
9544;DHT22;30418;51.45933468;7.33152330;2023-02-28T12:03:56;6.60;48.50
9544;DHT22;30418;51.45933468;7.33152330;2023-02-28T12:06:31;6.70;48.40
9544;DHT22;30418;51.45933468;7.33152330;2023-02-28T12:09:29;6.80;48.20
9544;DHT22;30418;51.45933468;7.33152330;2023-02-28T12:12:06;6.80;48.30
9544;DHT22;30418;51.45933468;7.33152330;2023-02-28T12:18:22;6.90;47.90
9544;DHT22;30418;51.45933468;7.33152330;2023-02-28T12:21:03;6.90;48.20
9544;DHT22;30418;51.45933468;7.33152330;2023-02-28T12:23:48;7.00;48.20
9544;DHT22;30418;51.45933468;7.33152330;2023-02-28T12:26:31;7.00;48.00
9544;DHT22;30418;51.45933468;7.33152330;2023-02-28T12:29:10;7.00;48.00
9544;DHT22;30418;51.45933468;7.33152330;2023-02-28T12:31:47;7.10;48.00
9544;DHT22;30418;51.45933468;7.33152330;2023-02-28T12:34:20;7.10;48.10
9544;DHT22;30418;51.45933468;7.33152330;2023-02-28T12:36:52;7.10;48.10
9544;DHT22;30418;51.45933468;7.33152330;2023-02-28T12:39:26;7.10;48.20
9544;DHT22;30418;51.45933468;7.33152330;2023-02-28T12:42:01;7.20;47.80
9544;DHT22;30418;51.45933468;7.33152330;2023-02-28T12:44:36;7.20;47.80
9544;DHT22;30418;51.45933468;7.33152330;2023-02-28T12:47:14;7.30;47.70
9544;DHT22;30418;51.45933468;7.33152330;2023-02-28T12:49:48;7.30;47.70
9544;DHT22;30418;51.45933468;7.33152330;2023-02-28T12:52:25;7.30;47.80
9544;DHT22;30418;51.45933468;7.33152330;2023-02-28T12:55:04;7.30;47.60
9544;DHT22;30418;51.45933468;7.33152330;2023-02-28T12:57:38;7.40;47.50
9544;DHT22;30418;51.45933468;7.33152330;2023-02-28T13:00:13;7.40;47.60
9544;DHT22;30418;51.45933468;7.33152330;2023-02-28T13:06:23;7.40;47.50
9544;DHT22;30418;51.45933468;7.33152330;2023-02-28T13:09:05;7.50;47.80
9544;DHT22;30418;51.45933468;7.33152330;2023-02-28T13:11:42;7.50;47.80
9544;DHT22;30418;51.45933468;7.33152330;2023-02-28T13:14:23;7.60;47.80
9544;DHT22;30418;51.45933468;7.33152330;2023-02-28T13:16:59;7.60;47.50
9544;DHT22;30418;51.45933468;7.33152330;2023-02-28T13:19:35;7.60;47.60
9544;DHT22;30418;51.45933468;7.33152330;2023-02-28T13:22:05;7.70;47.30
9544;DHT22;30418;51.45933468;7.33152330;2023-02-28T13:24:47;7.70;47.40
9544;DHT22;30418;51.45933468;7.33152330;2023-02-28T13:27:32;7.70;47.10
9544;DHT22;30418;51.45933468;7.33152330;2023-02-28T13:33:32;7.80;47.00
9544;DHT22;30418;51.45933468;7.33152330;2023-02-28T13:36:23;7.80;47.40
9544;DHT22;30418;51.45933468;7.33152330;2023-02-28T13:38:56;7.80;47.20
9544;DHT22;30418;51.45933468;7.33152330;2023-02-28T13:41:45;7.90;47.70
9544;DHT22;30418;51.45933468;7.33152330;2023-02-28T13:44:19;7.90;47.30
9544;DHT22;30418;51.45933468;7.33152330;2023-02-28T13:47:27;7.90;47.40
9544;DHT22;30418;51.45933468;7.33152330;2023-02-28T13:50:15;8.00;47.20
9544;DHT22;30418;51.45933468;7.33152330;2023-02-28T13:52:56;8.00;47.30
9544;DHT22;30418;51.45933468;7.33152330;2023-02-28T13:55:37;8.00;47.40
9544;DHT22;30418;51.45933468;7.33152330;2023-02-28T13:58:27;8.10;47.50
9544;DHT22;30418;51.45933468;7.33152330;2023-02-28T14:01:22;8.10;47.20
9544;DHT22;30418;51.45933468;7.33152330;2023-02-28T14:07:20;8.20;47.10
9544;DHT22;30418;51.45933468;7.33152330;2023-02-28T14:09:56;8.20;47.40
9544;DHT22;30418;51.45933468;7.33152330;2023-02-28T14:12:53;8.20;47.40
9544;DHT22;30418;51.45933468;7.33152330;2023-02-28T14:18:24;8.30;47.00
9544;DHT22;30418;51.45933468;7.33152330;2023-02-28T14:21:01;8.30;47.10
9544;DHT22;30418;51.45933468;7.33152330;2023-02-28T14:33:10;8.40;47.20
9544;DHT22;30418;51.45933468;7.33152330;2023-02-28T14:36:06;8.40;47.10
9544;DHT22;30418;51.45933468;7.33152330;2023-02-28T14:38:42;8.40;46.80
9544;DHT22;30418;51.45933468;7.33152330;2023-02-28T14:41:18;8.40;46.80
9544;DHT22;30418;51.45933468;7.33152330;2023-02-28T14:43:52;8.40;46.70
9544;DHT22;30418;51.45933468;7.33152330;2023-02-28T14:46:25;8.40;46.80
9544;DHT22;30418;51.45933468;7.33152330;2023-02-28T14:48:57;8.40;46.80
9544;DHT22;30418;51.45933468;7.33152330;2023-02-28T14:51:27;8.30;46.60
9544;DHT22;30418;51.45933468;7.33152330;2023-02-28T14:53:58;8.30;46.70
9544;DHT22;30418;51.45933468;7.33152330;2023-02-28T14:56:34;8.30;46.70
9544;DHT22;30418;51.45933468;7.33152330;2023-02-28T14:59:05;8.30;46.60